Monroe, New Hampshire
Current Conditions -  °F | °C
As of 6:15 AM on Thursday 23 Oct 2014 (Local Time) from KCDA Reporting Station
Overcast Overcast  
Wind Chill: 40°   Ceiling: 2200
Heat Index: 47°   Visibility: 10mi
Dew Point: 39°   Wind: 16mph
Humidity: 74%   Direction: 330°NNW
Pressure: 29.96"   Gusts: 22mph
Location:  44.26°N, 72.06°W
Report Text: KCDA 231015Z AUTO 33014G19KT 10SM OVC022 08/04 A2996 RMK AO2 T00810038
Loading
Personal Weather Stations






























Interactive Weather Map
Tropical Storm Tracking
New forecast layout! Learn more

10-Day Weather Forecast

Advertisements
Track Severe Weather on mobile